Historique des mesures à Cassis (13260), France
Quotidien Résumé Mars 4, 2021 Unités:  Métrique/US    US   Métrique
Quotidien Hebdomadaire Mensuel Annuel
  Maximum: Minimum: Moyenne:
Température: 82.9 °F /  28.3 °C 62.2 °F /  16.8 °C 72.7 °F /  22.6 °C
Point de rosée: 61.7 °F /  16.5 °C 50.4 °F /  10.2 °C 56.3 °F /  13.5 °C
Humidité: 74% 42% 58%
Vitesse du vent: 4.2mph /  6.8km/h - 2mph /  3.2km/h
Rafales: 6.7mph /  10.8km/h - -
Vent- - WSW
Pression: 30.1 in /  1020.1 hPa 30.1 in /  1018.2 hPa -
Précipitations: 0 in /  0.0 mm    
Historical Graphs
 
 
Mesures pour : Mars 4, 2021
Heure Temperature Point de rosée Pression Vent Vitesse du vent Rafales Humidité Pluie (par heure)
00:10 65.1 °F /  18.4 °C 56.7 °F /  13.7 °C 30.1in /  1019.2hPa WNW 2.7mph /  4.3km/h 2.9mph /  4.7km/h 74% 0in /  0.0mm
01:10 64.2 °F /  17.9 °C 55.4 °F /  13 °C 30.1in /  1019.4hPa NW 3.6mph /  5.8km/h 5.2mph /  8.3km/h 73% 0in /  0.0mm
02:10 64.2 °F /  17.9 °C 53.4 °F /  11.9 °C 30.1in /  1019.2hPa Calm   1.1mph /  1.8km/h 68% 0in /  0.0mm
03:10 63.1 °F /  17.3 °C 52 °F /  11.1 °C 30.1in /  1019.3hPa NW 4.2mph /  6.8km/h 6.7mph /  10.8km/h 67% 0in /  0.0mm
04:10 63 °F /  17.2 °C 50.9 °F /  10.5 °C 30.1in /  1019.3hPa NW 2.7mph /  4.3km/h 4.2mph /  6.8km/h 65% 0in /  0.0mm
05:10 62.2 °F /  16.8 °C 50.4 °F /  10.2 °C 30.1in /  1019.2hPa NW 1.1mph /  1.8km/h 3.1mph /  5km/h 65% 0in /  0.0mm
06:10 62.2 °F /  16.8 °C 50.4 °F /  10.2 °C 30.1in /  1019.1hPa NW 2.2mph /  3.6km/h 4.7mph /  7.6km/h 65% 0in /  0.0mm
07:10 64.2 °F /  17.9 °C 50.4 °F /  10.2 °C 30.1in /  1019.3hPa WNW 1.8mph /  2.9km/h 4mph /  6.5km/h 61% 0in /  0.0mm
08:10 79.3 °F /  26.3 °C 54.3 °F /  12.4 °C 30.1in /  1019.2hPa NNW 2mph /  3.2km/h 4.2mph /  6.8km/h 42% 0in /  0.0mm
09:10 73.9 °F /  23.3 °C 53.6 °F /  12 °C 30.1in /  1019.6hPa SSE 2.9mph /  4.7km/h 3.4mph /  5.4km/h 49% 0in /  0.0mm
10:10 74.8 °F /  23.8 °C 54.5 °F /  12.5 °C 30.1in /  1019.7hPa SSE 3.1mph /  5km/h 4.9mph /  7.9km/h 49% 0in /  0.0mm
11:10 79.5 °F /  26.4 °C 55 °F /  12.8 °C 30.1in /  1019.7hPa South 1.6mph /  2.5km/h 5.3mph /  8.6km/h 43% 0in /  0.0mm
12:10 82 °F /  27.8 °C 56.7 °F /  13.7 °C 30.1in /  1020.1hPa SW 2.9mph /  4.7km/h 4.7mph /  7.6km/h 42% 0in /  0.0mm
13:10 82.8 °F /  28.2 °C 58.5 °F /  14.7 °C 30.1in /  1019.4hPa SE 2.5mph /  4km/h 3.1mph /  5km/h 44% 0in /  0.0mm
14:10 82.9 °F /  28.3 °C 59.9 °F /  15.5 °C 30.1in /  1018.7hPa ESE 1.6mph /  2.5km/h 3.4mph /  5.4km/h 46% 0in /  0.0mm
15:10 82.2 °F /  27.9 °C 59.9 °F /  15.5 °C 30.1in /  1018.7hPa SSW 3.8mph /  6.1km/h 4.5mph /  7.2km/h 47% 0in /  0.0mm
16:10 80.4 °F /  26.9 °C 60.6 °F /  15.9 °C 30.1in /  1018.8hPa WSW 3.4mph /  5.4km/h 3.8mph /  6.1km/h 51% 0in /  0.0mm
17:10 76.6 °F /  24.8 °C 60.8 °F /  16 °C 30.1in /  1019.0hPa SSW 3.8mph /  6.1km/h 6.3mph /  10.1km/h 58% 0in /  0.0mm
18:10 77.2 °F /  25.1 °C 61.7 °F /  16.5 °C 30.1in /  1018.2hPa Calm   1.1mph /  1.8km/h 59% 0in /  0.0mm
19:10 77.7 °F /  25.4 °C 60.3 °F /  15.7 °C 30.1in /  1018.5hPa SW 2.5mph /  4km/h 2.5mph /  4km/h 55% 0in /  0.0mm
20:10 75.7 °F /  24.3 °C 59.9 °F /  15.5 °C 30.1in /  1018.9hPa Calm   4.9mph /  7.9km/h 58% 0in /  0.0mm
21:10 72.1 °F /  22.3 °C 58.8 °F /  14.9 °C 30.1in /  1018.6hPa Calm     63% 0in /  0.0mm
22:10 70.5 °F /  21.4 °C 59 °F /  15 °C 30.1in /  1019.8hPa Calm   2mph /  3.2km/h 67% 0in /  0.0mm
23:10 68.2 °F /  20.1 °C 58.8 °F /  14.9 °C 30.1in /  1019.7hPa Calm   2.5mph /  4km/h 72% 0in /  0.0mm
Observations météo à CASSIS
WU-History script by Weather Underground - 2 mb